createdAt,value
2024-04-30T00:00:01.033Z,16.3
2024-04-30T00:01:05.118Z,16.3
2024-04-30T00:02:01.339Z,16.2
2024-04-30T00:03:00.166Z,16.2
2024-04-30T00:03:59.058Z,16.2
2024-04-30T00:04:59.903Z,16.2
2024-04-30T00:06:07.553Z,16.2
2024-04-30T00:06:59.680Z,16.1
2024-04-30T00:08:00.652Z,16.1
2024-04-30T00:08:59.456Z,16.1
2024-04-30T00:10:00.392Z,16.1
2024-04-30T00:11:10.307Z,16.1
2024-04-30T00:12:00.352Z,16.1
2024-04-30T00:12:59.128Z,16.1
2024-04-30T00:13:59.836Z,16.1
2024-04-30T00:15:01.023Z,16.1
2024-04-30T00:16:12.414Z,16.1
2024-04-30T00:16:59.697Z,16
2024-04-30T00:18:01.079Z,16
2024-04-30T00:19:04.507Z,16
2024-04-30T00:19:59.862Z,16
2024-04-30T00:20:58.606Z,15.9
2024-04-30T00:22:00.263Z,15.9
2024-04-30T00:22:59.028Z,15.9
2024-04-30T00:23:59.746Z,15.8
2024-04-30T00:25:01.057Z,15.9
2024-04-30T00:25:59.757Z,15.9
2024-04-30T00:27:01.015Z,15.9
2024-04-30T00:27:59.963Z,15.9
2024-04-30T00:28:58.663Z,15.9
2024-04-30T00:30:01.538Z,15.9
2024-04-30T00:31:00.414Z,15.8
2024-04-30T00:31:59.228Z,15.9
2024-04-30T00:32:59.963Z,15.9
2024-04-30T00:33:59.413Z,15.8
2024-04-30T00:35:00.091Z,15.8
2024-04-30T00:35:58.798Z,15.9
2024-04-30T00:37:00.999Z,15.9
2024-04-30T00:37:59.741Z,15.9
2024-04-30T00:39:01.017Z,15.9
2024-04-30T00:39:59.823Z,15.9
2024-04-30T00:41:00.971Z,15.9
2024-04-30T00:41:59.707Z,15.8
2024-04-30T00:43:01.138Z,15.8
2024-04-30T00:44:01.932Z,15.8
2024-04-30T00:44:59.898Z,15.8
2024-04-30T00:46:01.120Z,15.8
2024-04-30T00:46:59.903Z,15.8
2024-04-30T00:48:01.555Z,15.8
2024-04-30T00:49:00.387Z,15.8
2024-04-30T00:49:59.119Z,15.8
2024-04-30T00:50:59.833Z,15.7
2024-04-30T00:52:01.023Z,15.6
2024-04-30T00:52:59.756Z,15.6
2024-04-30T00:54:02.463Z,15.6
2024-04-30T00:55:01.026Z,15.6
2024-04-30T00:55:59.870Z,15.5
2024-04-30T00:57:01.135Z,15.5
2024-04-30T00:57:59.896Z,15.4
2024-04-30T00:59:00.966Z,15.4
2024-04-30T00:59:59.679Z,15.4
2024-04-30T01:01:01.104Z,15.4
2024-04-30T01:01:59.876Z,15.3
2024-04-30T01:03:01.122Z,15.3
2024-04-30T01:04:00.094Z,15.3
2024-04-30T01:04:58.895Z,15.4
2024-04-30T01:06:00.962Z,15.3
2024-04-30T01:06:59.668Z,15.3
2024-04-30T01:08:00.973Z,15.3
2024-04-30T01:08:59.671Z,15.3
2024-04-30T01:10:00.654Z,15.3
2024-04-30T01:10:59.456Z,15.3
2024-04-30T01:12:00.408Z,15.3
2024-04-30T01:12:59.255Z,15.3
2024-04-30T01:13:59.961Z,15.3
2024-04-30T01:14:58.699Z,15.3
2024-04-30T01:16:01.116Z,15.3
2024-04-30T01:16:59.906Z,15.3
2024-04-30T01:18:01.123Z,15.3
2024-04-30T01:18:59.935Z,15.3
2024-04-30T01:19:58.599Z,15.2
2024-04-30T01:21:00.270Z,15.2
2024-04-30T01:21:59.028Z,15.1
2024-04-30T01:22:59.735Z,15.1
2024-04-30T01:24:01.093Z,15.1
2024-04-30T01:24:59.845Z,15.1
2024-04-30T01:26:00.993Z,15.1
2024-04-30T01:26:59.678Z,15
2024-04-30T01:28:00.412Z,15
2024-04-30T01:28:59.182Z,15
2024-04-30T01:30:00.000Z,15
2024-04-30T01:30:58.704Z,14.9
2024-04-30T01:32:01.134Z,14.9
2024-04-30T01:33:00.011Z,15
2024-04-30T01:33:58.789Z,15
2024-04-30T01:35:01.068Z,15
2024-04-30T01:35:59.727Z,15
2024-04-30T01:37:01.074Z,15
2024-04-30T01:37:59.858Z,15
2024-04-30T01:39:01.006Z,15
2024-04-30T01:39:59.798Z,15
2024-04-30T01:41:02.629Z,15
2024-04-30T01:42:02.360Z,14.9
2024-04-30T01:43:00.465Z,14.8
2024-04-30T01:43:59.232Z,14.8
2024-04-30T01:45:00.051Z,14.8
2024-04-30T01:45:58.769Z,14.8
2024-04-30T01:47:04.837Z,14.8
2024-04-30T01:48:01.198Z,14.8
2024-04-30T01:49:00.159Z,14.8
2024-04-30T01:49:58.897Z,14.8
2024-04-30T01:51:01.458Z,14.8
2024-04-30T01:52:07.485Z,14.8
2024-04-30T01:53:00.157Z,14.8
2024-04-30T01:53:58.823Z,14.8
2024-04-30T01:55:01.191Z,14.8
2024-04-30T01:56:00.078Z,14.8
2024-04-30T01:57:08.709Z,14.8
2024-04-30T01:58:01.184Z,14.7
2024-04-30T01:58:59.863Z,14.7
2024-04-30T02:00:01.087Z,14.7
2024-04-30T02:00:59.821Z,14.6
2024-04-30T02:02:11.020Z,14.6
2024-04-30T02:03:01.449Z,14.6
2024-04-30T02:03:59.726Z,14.6
2024-04-30T02:05:07.966Z,14.6
2024-04-30T02:06:01.067Z,14.6
2024-04-30T02:07:14.508Z,14.6
2024-04-30T02:07:59.917Z,14.5
2024-04-30T02:09:01.077Z,14.5
2024-04-30T02:09:59.886Z,14.5
2024-04-30T02:10:58.643Z,14.5
2024-04-30T02:12:16.075Z,14.4
2024-04-30T02:13:00.429Z,14.4
2024-04-30T02:13:59.126Z,14.4
2024-04-30T02:14:59.880Z,14.4
2024-04-30T02:16:01.157Z,14.5
2024-04-30T02:16:59.913Z,14.5
2024-04-30T02:17:58.733Z,14.5
2024-04-30T02:19:01.209Z,14.6
2024-04-30T02:20:00.012Z,14.6
2024-04-30T02:20:58.701Z,14.5
2024-04-30T02:22:01.194Z,14.5
2024-04-30T02:22:59.939Z,14.5
2024-04-30T02:23:58.667Z,14.5
2024-04-30T02:25:00.451Z,14.5
2024-04-30T02:25:59.263Z,14.5
2024-04-30T02:26:59.986Z,14.5
2024-04-30T02:27:58.655Z,14.4
2024-04-30T02:29:00.473Z,14.4
2024-04-30T02:29:59.209Z,14.5
2024-04-30T02:30:59.944Z,14.5
2024-04-30T02:31:58.659Z,14.5
2024-04-30T02:33:00.499Z,14.4
2024-04-30T02:33:59.478Z,14.4
2024-04-30T02:35:00.485Z,14.4
2024-04-30T02:35:59.213Z,14.4
2024-04-30T02:36:59.944Z,14.4
2024-04-30T02:37:58.717Z,14.4
2024-04-30T02:39:00.963Z,14.5
2024-04-30T02:39:59.715Z,14.5
2024-04-30T02:41:00.984Z,14.5
2024-04-30T02:41:59.679Z,14.5
2024-04-30T02:43:00.563Z,14.5
2024-04-30T02:43:59.297Z,14.5
2024-04-30T02:45:00.152Z,14.5
2024-04-30T02:45:58.915Z,14.5
2024-04-30T02:46:59.731Z,14.5
2024-04-30T02:48:01.138Z,14.5
2024-04-30T02:48:59.881Z,14.5
2024-04-30T02:50:01.054Z,14.4
2024-04-30T02:50:59.811Z,14.4
2024-04-30T02:52:01.019Z,14.4
2024-04-30T02:52:59.721Z,14.3
2024-04-30T02:54:01.087Z,14.3
2024-04-30T02:54:59.804Z,14.3
2024-04-30T02:56:01.387Z,14.3
2024-04-30T02:57:00.164Z,14.3
2024-04-30T02:57:58.843Z,14.3
2024-04-30T02:59:01.006Z,14.3
2024-04-30T02:59:59.723Z,14.3
2024-04-30T03:01:01.165Z,14.3
2024-04-30T03:02:00.018Z,14.3
2024-04-30T03:02:58.778Z,14.3
2024-04-30T03:04:01.392Z,14.3
2024-04-30T03:05:00.399Z,14.3
2024-04-30T03:05:59.214Z,14.3
2024-04-30T03:07:00.039Z,14.3
2024-04-30T03:07:58.815Z,14.3
2024-04-30T03:09:00.959Z,14.2
2024-04-30T03:09:59.676Z,14.2
2024-04-30T03:11:01.037Z,14.2
2024-04-30T03:11:59.883Z,14.2
2024-04-30T03:13:01.130Z,14.1
2024-04-30T03:13:59.913Z,14.1
2024-04-30T03:15:01.060Z,14.2
2024-04-30T03:15:59.807Z,14.2
2024-04-30T03:17:01.089Z,14.2
2024-04-30T03:17:59.898Z,14.2
2024-04-30T03:18:58.716Z,14.2
2024-04-30T03:20:00.968Z,14.2
2024-04-30T03:20:59.949Z,14.2
2024-04-30T03:21:58.746Z,14.2
2024-04-30T03:23:03.019Z,14.2
2024-04-30T03:24:00.971Z,14.1
2024-04-30T03:24:59.774Z,14.1
2024-04-30T03:26:01.021Z,14.1
2024-04-30T03:26:59.762Z,14.2
2024-04-30T03:28:02.944Z,14.2
2024-04-30T03:29:00.997Z,14.2
2024-04-30T03:29:59.677Z,14.2
2024-04-30T03:31:00.801Z,14.2
2024-04-30T03:31:59.559Z,14.1
2024-04-30T03:33:02.770Z,14.1
2024-04-30T03:34:00.115Z,14.1
2024-04-30T03:34:59.899Z,14.1
2024-04-30T03:36:01.054Z,14.1
2024-04-30T03:36:59.835Z,14.1
2024-04-30T03:38:05.199Z,14.1
2024-04-30T03:39:01.491Z,14.1
2024-04-30T03:40:00.002Z,14
2024-04-30T03:40:58.719Z,14.1
2024-04-30T03:42:00.956Z,14
2024-04-30T03:43:04.437Z,14
2024-04-30T03:43:59.971Z,14
2024-04-30T03:44:58.630Z,14
2024-04-30T03:46:00.546Z,14
2024-04-30T03:46:59.403Z,14
2024-04-30T03:48:07.434Z,14
2024-04-30T03:49:00.109Z,14.1
2024-04-30T03:50:01.449Z,14
2024-04-30T03:50:59.815Z,14
2024-04-30T03:52:01.266Z,14
2024-04-30T03:53:10.891Z,14
2024-04-30T03:53:59.727Z,14
2024-04-30T03:55:01.861Z,14.1
2024-04-30T03:56:01.003Z,14
2024-04-30T03:56:59.744Z,14.1
2024-04-30T03:58:16.840Z,14.1
2024-04-30T03:59:01.539Z,14.1
2024-04-30T04:00:00.307Z,14
2024-04-30T04:00:59.212Z,14
2024-04-30T04:01:59.987Z,14
2024-04-30T04:02:58.821Z,14
2024-04-30T04:04:01.137Z,14
2024-04-30T04:05:01.125Z,14
2024-04-30T04:06:00.187Z,14
2024-04-30T04:06:58.904Z,14
2024-04-30T04:08:01.225Z,14
2024-04-30T04:08:59.931Z,14
2024-04-30T04:09:58.611Z,14
2024-04-30T04:11:00.365Z,14
2024-04-30T04:11:58.999Z,14
2024-04-30T04:12:59.726Z,14.1
2024-04-30T04:14:01.012Z,14.1
2024-04-30T04:14:59.667Z,14.1
2024-04-30T04:16:00.470Z,14.2
2024-04-30T04:16:59.176Z,14.2
2024-04-30T04:17:59.929Z,14.3
2024-04-30T04:18:58.795Z,14.3
2024-04-30T04:20:01.194Z,14.4
2024-04-30T04:20:59.917Z,14.5
2024-04-30T04:22:01.135Z,14.5
2024-04-30T04:22:59.845Z,14.5
2024-04-30T04:24:00.971Z,14.5
2024-04-30T04:24:59.620Z,14.5
2024-04-30T04:26:00.348Z,14.5
2024-04-30T04:26:59.045Z,14.5
2024-04-30T04:27:59.776Z,14.5
2024-04-30T04:29:01.006Z,14.5
2024-04-30T04:29:59.640Z,14.6
2024-04-30T04:31:00.427Z,14.7
2024-04-30T04:32:00.953Z,14.8
2024-04-30T04:33:00.284Z,14.8
2024-04-30T04:33:59.085Z,14.8
2024-04-30T04:34:59.739Z,14.8
2024-04-30T04:36:01.039Z,14.8
2024-04-30T04:36:59.877Z,14.9
2024-04-30T04:38:01.088Z,14.9
2024-04-30T04:38:59.838Z,14.9
2024-04-30T04:40:01.022Z,14.9
2024-04-30T04:40:59.896Z,15
2024-04-30T04:42:01.649Z,15.1
2024-04-30T04:43:01.273Z,15.1
2024-04-30T04:44:00.060Z,15.1
2024-04-30T04:44:58.757Z,15.1
2024-04-30T04:46:01.105Z,15.2
2024-04-30T04:46:59.920Z,15.2
2024-04-30T04:48:01.122Z,15.3
2024-04-30T04:49:00.144Z,15.3
2024-04-30T04:49:58.866Z,15.5
2024-04-30T04:51:01.040Z,15.5
2024-04-30T04:51:59.758Z,15.5
2024-04-30T04:53:00.526Z,15.5
2024-04-30T04:53:59.304Z,15.5
2024-04-30T04:55:04.013Z,15.5
2024-04-30T04:56:00.042Z,15.5
2024-04-30T04:56:58.727Z,15.5
2024-04-30T04:58:01.086Z,15.5
2024-04-30T04:58:59.771Z,15.6
2024-04-30T05:00:00.990Z,15.6
2024-04-30T05:00:59.917Z,15.8
2024-04-30T05:01:58.739Z,15.9
2024-04-30T05:03:01.046Z,16.1
2024-04-30T05:04:00.014Z,16.2
2024-04-30T05:04:58.793Z,16.3
2024-04-30T05:06:01.462Z,16.4
2024-04-30T05:07:02.452Z,16.5
2024-04-30T05:08:00.225Z,16.6
2024-04-30T05:09:02.806Z,16.8
2024-04-30T05:09:59.610Z,17
2024-04-30T05:11:00.371Z,17.3
2024-04-30T05:11:59.130Z,17.4
2024-04-30T05:12:59.947Z,17.5
2024-04-30T05:14:06.150Z,17.6
2024-04-30T05:14:59.692Z,17.8
2024-04-30T05:16:00.356Z,18
2024-04-30T05:16:59.069Z,18.1
2024-04-30T05:17:59.806Z,18.3
2024-04-30T05:19:08.577Z,18.4
2024-04-30T05:20:00.981Z,18.4
2024-04-30T05:20:59.699Z,18.5
2024-04-30T05:22:01.111Z,18.7
2024-04-30T05:22:59.952Z,18.9
2024-04-30T05:24:11.856Z,19
2024-04-30T05:24:59.616Z,19.1
2024-04-30T05:26:00.434Z,19.3
2024-04-30T05:26:59.126Z,19.4
2024-04-30T05:27:59.916Z,19.5
2024-04-30T05:29:14.315Z,19.6
2024-04-30T05:30:02.433Z,19.7
2024-04-30T05:30:59.999Z,19.8
2024-04-30T05:31:58.763Z,19.8
2024-04-30T05:33:01.134Z,20
2024-04-30T05:33:59.822Z,20.1
2024-04-30T05:35:01.038Z,20.1
2024-04-30T05:35:59.692Z,20.2
2024-04-30T05:37:00.520Z,20.3
2024-04-30T05:37:59.308Z,20.4
2024-04-30T05:39:02.842Z,20.5
2024-04-30T05:40:00.085Z,20.5
2024-04-30T05:40:58.806Z,20.6
2024-04-30T05:42:01.424Z,20.6
2024-04-30T05:43:00.156Z,20.7
2024-04-30T05:43:58.823Z,20.7
2024-04-30T05:45:00.950Z,20.8
2024-04-30T05:45:59.787Z,20.8
2024-04-30T05:47:01.127Z,20.8
2024-04-30T05:47:59.906Z,20.9
2024-04-30T05:48:58.662Z,20.8
2024-04-30T05:50:00.672Z,20.8
2024-04-30T05:50:59.362Z,20.8
2024-04-30T05:52:00.005Z,20.8
2024-04-30T05:52:58.682Z,20.9
2024-04-30T05:54:00.433Z,21
2024-04-30T05:54:59.084Z,21.1
2024-04-30T05:55:59.854Z,21.3
2024-04-30T05:57:01.054Z,21.5
2024-04-30T05:58:00.153Z,21.6
2024-04-30T05:58:58.828Z,21.7
2024-04-30T06:00:00.985Z,21.8
2024-04-30T06:00:59.687Z,21.8
2024-04-30T06:02:01.178Z,21.5
2024-04-30T06:03:03.381Z,21.5
2024-04-30T06:03:59.984Z,21.6
2024-04-30T06:04:59.187Z,21.7
2024-04-30T06:05:59.994Z,21.8
2024-04-30T06:06:58.778Z,21.8
2024-04-30T06:08:01.059Z,22
2024-04-30T06:08:59.726Z,22
2024-04-30T06:10:00.987Z,22
2024-04-30T06:10:59.799Z,22
2024-04-30T06:12:00.969Z,21.9
2024-04-30T06:12:59.697Z,22
2024-04-30T06:14:00.975Z,22.1
2024-04-30T06:15:03.242Z,22
2024-04-30T06:15:59.663Z,22
2024-04-30T06:17:00.413Z,22.1
2024-04-30T06:17:59.231Z,22
2024-04-30T06:19:00.206Z,21.7
2024-04-30T06:19:58.975Z,21.3
2024-04-30T06:20:59.684Z,21
2024-04-30T06:22:00.958Z,20.5
2024-04-30T06:22:59.618Z,20.1
2024-04-30T06:24:00.341Z,19.8
2024-04-30T06:24:59.004Z,19.6
2024-04-30T06:25:59.714Z,19.5
2024-04-30T06:27:00.969Z,19.4
2024-04-30T06:27:59.741Z,19.3
2024-04-30T06:29:01.382Z,19.1
2024-04-30T06:30:00.063Z,19.1
2024-04-30T06:30:58.743Z,19.1
2024-04-30T06:32:00.967Z,19.1
2024-04-30T06:32:59.824Z,19
2024-04-30T06:34:01.053Z,19
2024-04-30T06:34:59.877Z,19
2024-04-30T06:35:58.666Z,19.1
2024-04-30T06:37:01.039Z,19.1
2024-04-30T06:37:59.933Z,19.1
2024-04-30T06:38:58.671Z,19.1
2024-04-30T06:40:00.388Z,19.2
2024-04-30T06:40:59.130Z,19.2
2024-04-30T06:41:59.843Z,19.3
2024-04-30T06:43:00.986Z,19.3
2024-04-30T06:43:59.743Z,19.3
2024-04-30T06:45:00.981Z,19.3
2024-04-30T06:45:59.659Z,19.5
2024-04-30T06:47:00.432Z,19.5
2024-04-30T06:47:59.242Z,19.5
2024-04-30T06:48:59.974Z,19.6
2024-04-30T06:49:58.698Z,19.6
2024-04-30T06:51:01.426Z,19.6
2024-04-30T06:52:00.116Z,19.6
2024-04-30T06:52:58.788Z,19.7
2024-04-30T06:54:01.045Z,19.8
2024-04-30T06:54:59.723Z,19.8
2024-04-30T06:56:01.097Z,19.8
2024-04-30T06:56:59.831Z,19.9
2024-04-30T06:58:01.270Z,20
2024-04-30T06:58:59.932Z,20
2024-04-30T07:00:01.849Z,20
2024-04-30T07:01:00.974Z,20
2024-04-30T07:01:59.763Z,20.1
2024-04-30T07:03:02.799Z,20.1
2024-04-30T07:04:01.027Z,20.1
2024-04-30T07:05:05.616Z,20.2
2024-04-30T07:06:01.429Z,20.2
2024-04-30T07:07:00.126Z,20.3
2024-04-30T07:07:58.771Z,20.3
2024-04-30T07:09:01.201Z,20.4
2024-04-30T07:10:06.955Z,20.4
2024-04-30T07:11:02.352Z,20.5
2024-04-30T07:12:00.127Z,20.5
2024-04-30T07:12:59.045Z,20.6
2024-04-30T07:13:59.766Z,20.7
2024-04-30T07:15:11.266Z,20.7
2024-04-30T07:16:00.996Z,20.8
2024-04-30T07:17:06.240Z,20.8
2024-04-30T07:18:00.043Z,20.9
2024-04-30T07:18:58.852Z,21
2024-04-30T07:20:13.351Z,21
2024-04-30T07:21:01.037Z,21
2024-04-30T07:21:59.667Z,21
2024-04-30T07:23:00.423Z,21
2024-04-30T07:23:59.090Z,21.1
2024-04-30T07:24:59.724Z,21.1
2024-04-30T07:26:01.060Z,21.2
2024-04-30T07:26:59.727Z,21.2
2024-04-30T07:28:01.003Z,21.2
2024-04-30T07:28:59.730Z,21.3
2024-04-30T07:30:00.987Z,21.3
2024-04-30T07:30:59.740Z,21.4
2024-04-30T07:32:01.094Z,21.4
2024-04-30T07:32:59.907Z,21.5
2024-04-30T07:33:58.673Z,21.5
2024-04-30T07:35:01.108Z,21.5
2024-04-30T07:35:59.876Z,21.5
2024-04-30T07:37:01.024Z,21.5
2024-04-30T07:37:59.707Z,21.5
2024-04-30T07:39:00.966Z,21.6
2024-04-30T07:39:59.713Z,21.6
2024-04-30T07:41:01.052Z,21.7
2024-04-30T07:41:59.722Z,21.7
2024-04-30T07:43:01.467Z,21.8
2024-04-30T07:44:00.150Z,21.8
2024-04-30T07:44:58.813Z,21.8
2024-04-30T07:46:00.982Z,21.9
2024-04-30T07:47:00.080Z,21.9
2024-04-30T07:47:58.862Z,22
2024-04-30T07:48:59.661Z,22
2024-04-30T07:50:00.451Z,22
2024-04-30T07:50:59.164Z,22.1
2024-04-30T07:51:59.908Z,22.1
2024-04-30T07:53:03.370Z,22.1
2024-04-30T07:54:01.045Z,22.2
2024-04-30T07:55:00.287Z,22.3
2024-04-30T07:55:59.132Z,22.3
2024-04-30T07:57:00.178Z,22.3
2024-04-30T07:57:58.900Z,22.3
2024-04-30T07:59:00.955Z,22.3
2024-04-30T07:59:59.630Z,22.3
2024-04-30T08:01:00.436Z,22.3
2024-04-30T08:01:59.300Z,22.3
2024-04-30T08:03:00.174Z,22.3
2024-04-30T08:03:59.054Z,22.4
2024-04-30T08:04:59.874Z,22.5
2024-04-30T08:06:10.341Z,22.5
2024-04-30T08:07:01.417Z,22.5
2024-04-30T08:08:00.120Z,22.4
2024-04-30T08:08:58.868Z,22.4
2024-04-30T08:10:00.973Z,22.4
2024-04-30T08:10:59.717Z,22.4
2024-04-30T08:12:00.978Z,22.5
2024-04-30T08:12:59.708Z,22.6
2024-04-30T08:14:01.773Z,22.6
2024-04-30T08:15:00.974Z,22.6
2024-04-30T08:15:59.734Z,22.6
2024-04-30T08:17:01.107Z,22.6
2024-04-30T08:17:59.869Z,22.6
2024-04-30T08:19:01.023Z,22.7
2024-04-30T08:19:59.826Z,22.8
2024-04-30T08:21:01.428Z,22.8
2024-04-30T08:22:00.091Z,23
2024-04-30T08:22:58.740Z,23
2024-04-30T08:24:01.456Z,23
2024-04-30T08:25:00.285Z,23.1
2024-04-30T08:25:58.991Z,23.1
2024-04-30T08:26:59.700Z,23.1
2024-04-30T08:28:01.438Z,23.1
2024-04-30T08:29:00.093Z,23.2
2024-04-30T08:29:59.418Z,23.2
2024-04-30T08:31:00.984Z,23.2
2024-04-30T08:32:00.264Z,23.2
2024-04-30T08:32:59.061Z,23.3
2024-04-30T08:33:59.890Z,23.3
2024-04-30T08:35:01.034Z,23.5
2024-04-30T08:36:01.322Z,23.5
2024-04-30T08:36:59.791Z,23.5
2024-04-30T08:38:01.835Z,23.6
2024-04-30T08:39:01.087Z,23.7
2024-04-30T08:39:59.808Z,23.7
2024-04-30T08:41:04.171Z,23.7
2024-04-30T08:42:01.064Z,23.7
2024-04-30T08:42:59.730Z,23.8
2024-04-30T08:44:01.063Z,23.8
2024-04-30T08:45:01.618Z,23.8
2024-04-30T08:46:06.255Z,23.8
2024-04-30T08:46:59.899Z,23.8
2024-04-30T08:47:58.630Z,23.8
2024-04-30T08:49:00.371Z,23.8
2024-04-30T08:50:05.774Z,23.8
2024-04-30T08:51:08.889Z,23.8
2024-04-30T08:52:00.209Z,23.8
2024-04-30T08:52:58.965Z,23.9
2024-04-30T08:53:59.713Z,24
2024-04-30T08:55:01.146Z,23.9
2024-04-30T08:56:11.928Z,24
2024-04-30T08:56:59.985Z,24
2024-04-30T08:57:58.677Z,24.1
2024-04-30T08:59:01.060Z,24.1
2024-04-30T08:59:59.720Z,24.1
2024-04-30T09:01:16.572Z,24.1
2024-04-30T09:02:00.139Z,24.1
2024-04-30T09:03:00.552Z,24.1
2024-04-30T09:03:59.376Z,24.1
2024-04-30T09:05:00.234Z,24.1
2024-04-30T09:05:59.238Z,24.1
2024-04-30T09:07:00.006Z,24.1
2024-04-30T09:07:59.773Z,24.1
2024-04-30T09:09:01.023Z,24.1
2024-04-30T09:09:59.689Z,24.1
2024-04-30T09:11:01.197Z,24.1
2024-04-30T09:12:00.115Z,24.1
2024-04-30T09:12:58.874Z,24.1
2024-04-30T09:14:01.069Z,24
2024-04-30T09:15:00.017Z,24
2024-04-30T09:15:58.817Z,24
2024-04-30T09:17:01.555Z,24
2024-04-30T09:17:59.696Z,24
2024-04-30T09:19:00.999Z,24
2024-04-30T09:19:59.646Z,24
2024-04-30T09:21:12.086Z,24
2024-04-30T09:22:01.008Z,24
2024-04-30T09:22:59.642Z,24
2024-04-30T09:24:00.400Z,24
2024-04-30T09:24:59.090Z,24.1
2024-04-30T09:25:59.965Z,24.3
2024-04-30T09:26:58.695Z,24.3
2024-04-30T09:28:01.095Z,24.3
2024-04-30T09:28:59.831Z,24.4
2024-04-30T09:30:01.062Z,24.5
2024-04-30T09:30:59.829Z,24.4
2024-04-30T09:32:00.981Z,24.5
2024-04-30T09:32:59.952Z,24.5
2024-04-30T09:33:58.744Z,24.5
2024-04-30T09:35:01.308Z,24.4
2024-04-30T09:36:03.303Z,24.4
2024-04-30T09:36:59.962Z,24.5
2024-04-30T09:37:58.646Z,24.5
2024-04-30T09:39:00.395Z,24.6
2024-04-30T09:39:59.362Z,24.7
2024-04-30T09:41:00.101Z,24.7
2024-04-30T09:41:58.778Z,24.8
2024-04-30T09:43:01.233Z,24.8
2024-04-30T09:43:59.913Z,24.8
2024-04-30T09:44:58.678Z,24.9
2024-04-30T09:46:00.336Z,24.9
2024-04-30T09:46:59.079Z,24.9
2024-04-30T09:47:59.997Z,24.9
2024-04-30T09:48:58.690Z,24.9
2024-04-30T09:50:00.460Z,25
2024-04-30T09:50:59.240Z,25
2024-04-30T09:51:59.970Z,25
2024-04-30T09:52:58.639Z,25.1
2024-04-30T09:54:00.271Z,25.1
2024-04-30T09:54:58.973Z,25.1
2024-04-30T09:55:59.625Z,25.1
2024-04-30T09:57:00.325Z,25
2024-04-30T09:57:58.988Z,25
2024-04-30T09:58:59.738Z,25.1
2024-04-30T10:00:01.184Z,25.1
2024-04-30T10:00:59.957Z,25.1
2024-04-30T10:01:58.899Z,25.2
2024-04-30T10:03:01.012Z,25.2
2024-04-30T10:03:59.812Z,25.2
2024-04-30T10:05:01.475Z,25.2
2024-04-30T10:06:01.177Z,25.2
2024-04-30T10:06:59.897Z,25.1
2024-04-30T10:08:00.999Z,25.1
2024-04-30T10:08:59.667Z,25.2
2024-04-30T10:10:00.438Z,25.2
2024-04-30T10:10:59.217Z,25.2
2024-04-30T10:12:00.296Z,25.2
2024-04-30T10:12:59.084Z,25.3
2024-04-30T10:13:59.817Z,25.2
2024-04-30T10:15:00.977Z,25.2
2024-04-30T10:15:59.735Z,25.1
2024-04-30T10:17:03.981Z,25.1
2024-04-30T10:18:01.002Z,25.2
2024-04-30T10:18:59.730Z,25.1
2024-04-30T10:20:01.047Z,25.1
2024-04-30T10:20:59.949Z,25.1
2024-04-30T10:22:05.241Z,25.1
2024-04-30T10:22:59.597Z,25.1
2024-04-30T10:24:00.288Z,25.1
2024-04-30T10:24:58.974Z,25.2
2024-04-30T10:25:59.737Z,25.4
2024-04-30T10:27:09.625Z,25.4
2024-04-30T10:28:00.957Z,25.3
2024-04-30T10:28:59.816Z,25.3
2024-04-30T10:30:01.077Z,25.3
2024-04-30T10:30:59.836Z,25.3
2024-04-30T10:32:11.883Z,25.3
2024-04-30T10:33:01.118Z,25.3
2024-04-30T10:33:59.978Z,25.3
2024-04-30T10:34:58.933Z,25.3
2024-04-30T10:35:59.646Z,25.3
2024-04-30T10:37:14.467Z,25.4
2024-04-30T10:38:02.638Z,25.4
2024-04-30T10:39:00.196Z,25.5
2024-04-30T10:39:58.851Z,25.5
2024-04-30T10:41:01.019Z,25.5
2024-04-30T10:41:59.705Z,25.5
2024-04-30T10:43:01.034Z,25.6
2024-04-30T10:44:00.637Z,25.6
2024-04-30T10:44:59.639Z,25.6
2024-04-30T10:46:00.341Z,25.7
2024-04-30T10:46:58.993Z,25.7
2024-04-30T10:47:59.834Z,25.6
2024-04-30T10:49:00.966Z,25.6
2024-04-30T10:50:11.784Z,25.6
2024-04-30T10:50:59.634Z,25.7
2024-04-30T10:52:00.380Z,25.8
2024-04-30T10:52:59.158Z,25.8
2024-04-30T10:53:59.879Z,25.8
2024-04-30T10:55:01.026Z,25.8
2024-04-30T10:56:00.798Z,25.8
2024-04-30T10:56:59.678Z,25.8
2024-04-30T10:58:00.442Z,25.8
2024-04-30T10:58:59.276Z,25.8
2024-04-30T10:59:59.975Z,25.9
2024-04-30T11:00:59.014Z,25.9
2024-04-30T11:01:59.776Z,25.9
2024-04-30T11:03:01.102Z,25.9
2024-04-30T11:03:59.880Z,25.9
2024-04-30T11:05:01.388Z,25.9
2024-04-30T11:06:00.093Z,25.9
2024-04-30T11:06:58.877Z,25.9
2024-04-30T11:07:59.723Z,25.9
2024-04-30T11:09:01.017Z,26
2024-04-30T11:09:59.661Z,26
2024-04-30T11:11:00.403Z,26
2024-04-30T11:11:59.293Z,26
2024-04-30T11:13:00.005Z,25.9
2024-04-30T11:14:00.721Z,25.9
2024-04-30T11:14:59.698Z,25.9
2024-04-30T11:16:07.915Z,25.9
2024-04-30T11:17:01.059Z,25.8
2024-04-30T11:18:00.023Z,25.8
2024-04-30T11:18:58.803Z,25.9
2024-04-30T11:20:01.060Z,26
2024-04-30T11:20:59.777Z,26
2024-04-30T11:22:00.989Z,26
2024-04-30T11:22:59.873Z,26
2024-04-30T11:24:01.352Z,26
2024-04-30T11:25:00.085Z,26
2024-04-30T11:25:58.858Z,26
2024-04-30T11:27:01.025Z,26.1
2024-04-30T11:27:59.678Z,26
2024-04-30T11:29:09.748Z,26
2024-04-30T11:30:00.363Z,26
2024-04-30T11:30:59.107Z,26.1
2024-04-30T11:31:59.846Z,26
2024-04-30T11:33:01.488Z,26
2024-04-30T11:34:00.342Z,26
2024-04-30T11:34:59.016Z,26
2024-04-30T11:35:59.676Z,26
2024-04-30T11:37:00.975Z,26
2024-04-30T11:37:59.803Z,26
2024-04-30T11:39:00.978Z,26.1
2024-04-30T11:39:59.664Z,26.1
2024-04-30T11:41:00.321Z,26.1
2024-04-30T11:42:07.122Z,26.1
2024-04-30T11:42:59.988Z,26.1
2024-04-30T11:43:58.669Z,26.1
2024-04-30T22:01:01.561Z,20
2024-04-30T22:02:00.378Z,20
2024-04-30T22:03:02.783Z,20
2024-04-30T22:04:00.278Z,20
2024-04-30T22:04:59.281Z,20
2024-04-30T22:06:00.063Z,20
2024-04-30T22:06:59.050Z,20
2024-04-30T22:07:59.720Z,20
2024-04-30T22:09:00.995Z,20
2024-04-30T22:10:03.308Z,20
2024-04-30T22:10:59.704Z,20
2024-04-30T22:12:01.030Z,20
2024-04-30T22:12:59.837Z,20
2024-04-30T22:14:01.577Z,20
2024-04-30T22:15:05.646Z,20.1
2024-04-30T22:16:00.260Z,20.1
2024-04-30T22:16:59.074Z,20.1
2024-04-30T22:18:00.174Z,20.1
2024-04-30T22:18:58.921Z,20.1
2024-04-30T22:20:09.077Z,20.1
2024-04-30T22:21:00.994Z,20.2
2024-04-30T22:21:59.681Z,20.1
2024-04-30T22:23:00.955Z,20.1
2024-04-30T22:23:59.778Z,20.1
2024-04-30T22:25:11.380Z,20
2024-04-30T22:26:00.833Z,20
2024-04-30T22:26:59.485Z,19.9
2024-04-30T22:28:03.470Z,19.8
2024-04-30T22:29:00.947Z,19.7
2024-04-30T22:30:19.877Z,19.6
2024-04-30T22:30:59.687Z,19.5
2024-04-30T22:32:00.967Z,19.5
2024-04-30T22:32:59.687Z,19.3
2024-04-30T22:34:01.395Z,19.3
2024-04-30T22:35:00.174Z,19.2
2024-04-30T22:35:58.849Z,19.2
2024-04-30T22:37:01.086Z,19.2
2024-04-30T22:37:59.771Z,19.2
2024-04-30T22:39:01.004Z,19.1
2024-04-30T22:39:59.809Z,19.1
2024-04-30T22:41:01.123Z,19.1
2024-04-30T22:41:59.780Z,19.1
2024-04-30T22:43:01.434Z,19.1
2024-04-30T22:44:00.139Z,19.1
2024-04-30T22:44:58.875Z,19.1
2024-04-30T22:46:01.199Z,19.1
2024-04-30T22:46:59.955Z,19.1
2024-04-30T22:47:58.910Z,19.1
2024-04-30T22:49:01.042Z,19.1
2024-04-30T22:50:00.128Z,19.1
2024-04-30T22:50:58.898Z,19.1
2024-04-30T22:52:01.428Z,19.2
2024-04-30T22:53:00.199Z,19.2
2024-04-30T22:53:58.952Z,19.2
2024-04-30T22:54:59.720Z,19.2
2024-04-30T22:56:01.028Z,19.2
2024-04-30T22:56:59.874Z,19.3
2024-04-30T22:58:01.107Z,19.3
2024-04-30T22:59:00.522Z,19.3
2024-04-30T22:59:59.301Z,19.3
2024-04-30T23:01:00.116Z,19.3
2024-04-30T23:01:58.919Z,19.3
2024-04-30T23:02:59.655Z,19.3
2024-04-30T23:04:01.880Z,19.3
2024-04-30T23:05:00.390Z,19.3
2024-04-30T23:05:59.098Z,19.2
2024-04-30T23:06:59.882Z,19.2
2024-04-30T23:07:58.639Z,19.2
2024-04-30T23:09:00.285Z,19.2
2024-04-30T23:09:58.991Z,19.2
2024-04-30T23:10:59.774Z,19.1
2024-04-30T23:12:01.125Z,19.1
2024-04-30T23:12:59.826Z,19.1
2024-04-30T23:14:01.051Z,19.1
2024-04-30T23:14:59.829Z,19.1
2024-04-30T23:16:01.118Z,19.1
2024-04-30T23:16:59.818Z,19.1
2024-04-30T23:18:01.174Z,19.1
2024-04-30T23:19:00.440Z,19.1
2024-04-30T23:19:59.115Z,19.1
2024-04-30T23:20:59.785Z,19
2024-04-30T23:22:01.091Z,19
2024-04-30T23:22:59.879Z,19
2024-04-30T23:24:00.962Z,19
2024-04-30T23:24:59.716Z,19
2024-04-30T23:26:01.035Z,18.9
2024-04-30T23:27:00.154Z,18.9
2024-04-30T23:27:58.916Z,18.9
2024-04-30T23:28:59.581Z,18.9
2024-04-30T23:30:00.355Z,19
2024-04-30T23:30:59.123Z,19
2024-04-30T23:32:00.021Z,19
2024-04-30T23:32:58.912Z,19
2024-04-30T23:33:59.651Z,18.9
2024-04-30T23:35:00.983Z,18.9
2024-04-30T23:35:59.660Z,18.8
2024-04-30T23:37:00.460Z,18.8
2024-04-30T23:38:00.254Z,18.8
2024-04-30T23:38:58.944Z,18.8
2024-04-30T23:39:59.780Z,18.7
2024-04-30T23:41:01.003Z,18.7
2024-04-30T23:41:59.679Z,18.7
2024-04-30T23:43:01.038Z,18.6